M I D A S
Marine Information and Data Acquisition System
Tripno 2280 of the Zeeleeuw from 2012-03-26 06:45:06 to 2012-03-26 15:07:12
Back to CruiseResearch ActivitiesStationsMapUnderway DataData graphs

EquipmentUnitsComment
TimeDGPSUTC
LatitudeDGPSDM.mWGS84
LongitudeDGPSDM.mWGS84
HeadingGyrodeg 
SOGDGPSknotsSpeed over ground
COGDGPSdegCourse over ground
DepthEcho soundermeters200 kHz
Missing or incorrect values are displayed as -999
Navigation data collected by the RV Zeeleeuw from 2012-03-26 06:21:21 to 2012-03-26 15:28:32
Time Latitude Longitude Heading SOG COG Depth
2012-03-26 06:22:26 51°13.638 2°56.021 126 -999 41 -999
2012-03-26 06:23:26 51°13.638 2°56.021 126.2 0.1 -999 -999
2012-03-26 06:24:26 51°13.636 2°56.02 126.1 -999 11 -999
2012-03-26 06:25:26 51°13.636 2°56.02 126.2 -999 190 -999
2012-03-26 06:26:26 51°13.636 2°56.02 126.2 -999 159 -999
2012-03-26 06:27:26 51°13.636 2°56.02 125.7 -999 226 -999
2012-03-26 06:28:26 51°13.636 2°56.02 125.7 0.1 43 -999
2012-03-26 06:29:26 51°13.636 2°56.02 125.5 -999 263 -999
2012-03-26 06:30:26 51°13.635 2°56.02 125.3 -999 216 -999
2012-03-26 06:31:26 51°13.636 2°56.019 125.4 -999 167 -999
2012-03-26 06:32:26 51°13.636 2°56.019 125.8 0.1 218 -999
2012-03-26 06:33:26 51°13.636 2°56.019 127 -999 231 -999
2012-03-26 06:34:26 51°13.636 2°56.019 127 -999 314 -999
2012-03-26 06:35:26 51°13.635 2°56.019 127.5 -999 271 -999
2012-03-26 06:36:26 51°13.635 2°56.019 127.5 0.1 6 -999
2012-03-26 06:37:26 51°13.633 2°56.021 127.5 0.1 202 -999
2012-03-26 06:38:26 51°13.635 2°56.019 127.8 -999 346 -999
2012-03-26 06:39:26 51°13.634 2°56.02 121.8 0.1 207 -999
2012-03-26 06:40:26 51°13.633 2°56.019 109.9 0.2 202 -999
2012-03-26 06:41:26 51°13.64 2°55.981 108.8 3.4 288 -999
2012-03-26 06:42:26 51°13.67 2°55.874 120.9 5 299 -999
2012-03-26 06:43:26 51°13.725 2°55.764 136.1 5.3 315 -999
2012-03-26 06:44:26 51°13.789 2°55.67 145.2 5 322 -999
2012-03-26 06:45:26 51°13.868 2°55.619 170.4 5.1 347 -999
2012-03-26 06:46:26 51°13.936 2°55.623 204 3.5 17 -999
2012-03-26 06:47:26 51°13.968 2°55.648 236 0.5 2 -999
2012-03-26 06:48:26 51°13.978 2°55.609 294.7 3 303 10
2012-03-26 06:49:25 51°14.052 2°55.508 325.7 7.9 325 10
2012-03-26 06:50:26 51°14.185 2°55.375 329.5 10.1 328 9.9
2012-03-26 06:51:26 51°14.329 2°55.227 331.1 10.5 329 -999
2012-03-26 06:52:26 51°14.489 2°55.077 332.7 11.8 330 10.3
2012-03-26 06:53:23 51°14.644 2°54.88 325.9 13 317 11
2012-03-26 06:54:22 51°14.799 2°54.651 326 12.9 318 11
2012-03-26 06:55:23 51°14.971 2°54.448 329.7 12.6 322 10.6
2012-03-26 06:56:22 51°15.137 2°54.253 331.7 12.6 326 10.6
2012-03-26 06:57:22 51°15.309 2°54.06 332.2 12.7 326 10.9
2012-03-26 06:58:22 51°15.483 2°53.871 334.2 12.7 326 11.1
2012-03-26 06:59:23 51°15.66 2°53.677 334 12.7 326 11.4
2012-03-26 07:00:22 51°15.832 2°53.487 334.6 12.7 329 11.6
2012-03-26 07:01:22 51°16.017 2°53.319 336.9 12.8 330 11.5
2012-03-26 07:02:22 51°16.199 2°53.145 334.8 12.9 328 11.5
2012-03-26 07:03:22 51°16.377 2°52.956 334.7 12.8 329 11.9
2012-03-26 07:04:22 51°16.567 2°52.803 341.1 12.7 334 11.2
2012-03-26 07:05:22 51°16.756 2°52.662 349.8 12.3 345 9.4
2012-03-26 07:06:22 51°16.956 2°52.628 4.9 12.1 358 9.5
2012-03-26 07:07:22 51°17.158 2°52.615 3 12 358 9.1
2012-03-26 07:08:22 51°17.357 2°52.618 3.9 12 357 9.4
2012-03-26 07:09:23 51°17.559 2°52.606 5 11.9 359 9.7
2012-03-26 07:10:22 51°17.748 2°52.658 21.2 11.6 15 9.8
2012-03-26 07:11:22 51°17.939 2°52.714 14.1 11.7 7 10
2012-03-26 07:12:22 51°18.125 2°52.791 33.9 11.4 31 10
2012-03-26 07:13:22 51°18.253 2°53.006 53.8 11.3 50 10.3
2012-03-26 07:14:22 51°18.373 2°53.235 54.7 11.2 52 10.4
2012-03-26 07:15:22 51°18.477 2°53.481 57.8 11.1 54 10.5
2012-03-26 07:16:22 51°18.586 2°53.725 61.8 11.2 60 10.6
2012-03-26 07:17:22 51°18.683 2°53.982 57.5 11.3 53 10.6
2012-03-26 07:18:22 51°18.785 2°54.231 65 11.2 63 10.7
2012-03-26 07:19:22 51°18.862 2°54.502 66.8 11.2 64 10.6
2012-03-26 07:20:22 51°18.964 2°54.752 60.4 11.2 59 10.6
2012-03-26 07:21:22 51°19.043 2°55.021 67 11.2 64 10.6
2012-03-26 07:22:22 51°19.143 2°55.271 57.8 11.2 55 10.7
2012-03-26 07:23:22 51°19.23 2°55.532 67.6 11.2 66 10.8
2012-03-26 07:24:22 51°19.319 2°55.791 59.7 11.2 57 10.7
2012-03-26 07:25:22 51°19.403 2°56.055 67 11.2 65 10.6
2012-03-26 07:26:22 51°19.494 2°56.315 61 11.2 57 10.6
2012-03-26 07:27:23 51°19.592 2°56.576 65.5 11.3 63 10.5
2012-03-26 07:28:22 51°19.673 2°56.841 66.1 11.2 63 10.4
2012-03-26 07:29:22 51°19.773 2°57.093 57.3 11.2 53 10.4
2012-03-26 07:30:22 51°19.878 2°57.338 64.1 11.2 63 10.5
2012-03-26 07:31:22 51°19.959 2°57.604 65.8 11.2 63 10.4
2012-03-26 07:32:22 51°20.045 2°57.868 65.8 11.2 62 10.3
2012-03-26 07:33:22 51°20.141 2°58.123 62.5 11.2 60 10.2
2012-03-26 07:34:22 51°20.234 2°58.38 64.3 11.1 60 10.1
2012-03-26 07:35:22 51°20.319 2°58.643 67.8 11.1 65 10.1
2012-03-26 07:36:22 51°20.381 2°58.919 74 10.9 72 9.9
2012-03-26 07:37:22 51°20.442 2°59.193 72.1 10.9 69 9.7
2012-03-26 07:38:22 51°20.51 2°59.462 69.6 10.8 65 9.7
2012-03-26 07:39:22 51°20.594 2°59.717 65.1 10.9 61 9.7
2012-03-26 07:40:23 51°20.671 2°59.983 68.3 10.9 64 9.5
2012-03-26 07:41:22 51°20.736 3°0.243 76.3 10.7 76 9.5
2012-03-26 07:42:22 51°20.768 3°0.522 77.2 10.7 74 9.5
2012-03-26 07:43:22 51°20.832 3°0.787 71.1 10.7 69 9.5
2012-03-26 07:44:23 51°20.869 3°1.065 86 10.5 86 9.1
2012-03-26 07:45:24 51°20.896 3°1.344 81.9 10.5 80 9.3
2012-03-26 07:46:22 51°20.929 3°1.606 79.3 10.3 78 9.3
2012-03-26 07:47:23 51°20.978 3°1.879 75.4 10.6 73 9.4
2012-03-26 07:48:22 51°21.04 3°2.139 72.5 10.7 69 9.6
2012-03-26 07:49:23 51°21.089 3°2.418 81.9 10.8 82 10
2012-03-26 07:50:22 51°21.116 3°2.697 81.1 10.8 80 9.8
2012-03-26 07:51:23 51°21.157 3°2.979 78.1 10.7 76 9.8
2012-03-26 07:52:22 51°21.209 3°3.243 71.8 10.7 68 9.9
2012-03-26 07:53:22 51°21.277 3°3.505 69.4 10.6 66 10
2012-03-26 07:54:22 51°21.324 3°3.775 79.8 10.5 78 10
2012-03-26 07:55:23 51°21.378 3°4.046 72.2 10.6 71 10
2012-03-26 07:56:23 51°21.42 3°4.317 78.9 10.4 77 10
2012-03-26 07:57:22 51°21.469 3°4.576 73.3 10.4 70 10
2012-03-26 07:58:22 51°21.531 3°4.835 72.7 10.5 70 10
2012-03-26 07:59:23 51°21.585 3°5.103 79.1 10.5 74 9.9
2012-03-26 08:00:22 51°21.63 3°5.364 76.9 10.3 73 9.8
2012-03-26 08:01:22 51°21.685 3°5.622 76.1 10.2 74 9.8
2012-03-26 08:02:22 51°21.719 3°5.888 82.2 10.2 82 9.8
2012-03-26 08:03:22 51°21.759 3°6.149 73.5 10.1 73 9.7
2012-03-26 08:04:22 51°21.796 3°6.412 82.1 10.3 83 10
2012-03-26 08:05:23 51°21.819 3°6.684 77.1 10.1 74 10.2
2012-03-26 08:06:22 51°21.871 3°6.938 74.1 10.3 74 10.4
2012-03-26 08:07:22 51°21.893 3°7.21 84.5 10.3 85 10.4
2012-03-26 08:08:22 51°21.92 3°7.484 77 10.4 75 10.6
2012-03-26 08:09:22 51°21.971 3°7.75 75.8 10.4 74 10.8
2012-03-26 08:10:22 51°22.02 3°8.017 77.8 10.5 77 10.7
2012-03-26 08:11:22 51°22.04 3°8.295 84.9 10.6 84 10.7
2012-03-26 08:12:23 51°22.065 3°8.578 81.2 10.6 81 10.9
2012-03-26 08:13:22 51°22.108 3°8.844 75.6 10.5 74 11.1
2012-03-26 08:14:22 51°22.135 3°9.119 84.3 10.4 83 11.4
2012-03-26 08:15:22 51°22.134 3°9.393 94.4 10.5 97 11.9
2012-03-26 08:16:22 51°22.111 3°9.669 94.2 10 96 12.2
2012-03-26 08:17:22 51°22.103 3°9.885 87.6 6.9 91 12.8
2012-03-26 08:18:22 51°22.098 3°10.084 90.1 8.8 92 13.1
2012-03-26 08:19:22 51°22.099 3°10.35 86.7 10.3 86 13.9
2012-03-26 08:20:23 51°22.131 3°10.629 76.5 10.6 73 15.1
2012-03-26 08:21:23 51°22.176 3°10.903 79.7 10.8 79 17.6
2012-03-26 08:22:22 51°22.198 3°11.182 84.9 10.6 83 15.9
2012-03-26 08:23:22 51°22.253 3°11.451 70.7 10.7 65 15.5
2012-03-26 08:24:22 51°22.328 3°11.708 70.5 10.6 65 14.7
2012-03-26 08:25:22 51°22.399 3°11.967 71.7 10.6 67 14.7
2012-03-26 08:26:22 51°22.457 3°12.231 78.2 10.5 75 13.6
2012-03-26 08:27:22 51°22.538 3°12.476 61 10.5 55 12.5
2012-03-26 08:28:22 51°22.621 3°12.719 64.4 10.5 58 12
2012-03-26 08:29:22 51°22.68 3°12.952 86.2 6.8 89 11.3
2012-03-26 08:30:23 51°22.681 3°13.091 81.2 4.2 83 11.1
2012-03-26 08:31:22 51°22.68 3°13.194 91.2 3.8 94 11
2012-03-26 08:32:22 51°22.667 3°13.271 109.1 1.8 133 10.8
2012-03-26 08:33:23 51°22.648 3°13.259 157.7 1.5 248 10.8
2012-03-26 08:34:22 51°22.64 3°13.216 190 1.8 255 11
2012-03-26 08:35:23 51°22.633 3°13.169 210.9 1.7 256 11
2012-03-26 08:36:22 51°22.626 3°13.124 224.4 1.8 256 11.2
2012-03-26 08:37:22 51°22.619 3°13.076 237.4 1.9 256 11.3
2012-03-26 08:38:23 51°22.611 3°13.026 248.3 1.9 258 11.3
2012-03-26 08:39:22 51°22.604 3°12.977 258.8 2 258 11.4
2012-03-26 08:40:23 51°22.596 3°12.926 267.1 1.9 256 11.5
2012-03-26 08:41:23 51°22.587 3°12.876 275.2 2 255 11.7
2012-03-26 08:42:22 51°22.58 3°12.827 281.9 1.9 256 11.8
2012-03-26 08:43:23 51°22.577 3°12.75 290.8 4.3 281 12
2012-03-26 08:44:22 51°22.624 3°12.677 13 3.6 353 12.2
2012-03-26 08:45:23 51°22.695 3°12.779 66.4 8.4 67 11.6
2012-03-26 08:46:23 51°22.699 3°13.035 88.6 10.2 89 10.9
2012-03-26 08:47:22 51°22.686 3°13.305 101.2 9.7 107 10.4
2012-03-26 08:48:23 51°22.626 3°13.406 134.7 2.7 161 10.5
2012-03-26 08:49:22 51°22.613 3°13.383 112.3 2 267 10.5
2012-03-26 08:50:26 51°22.609 3°13.33 101.9 1.8 257 -999
2012-03-26 08:51:24 51°22.602 3°13.289 104.2 1.5 253 10.8
2012-03-26 08:52:23 51°22.592 3°13.255 107.4 1.3 245 10.8
2012-03-26 08:53:22 51°22.583 3°13.226 103.3 1.1 243 10.9
2012-03-26 08:54:23 51°22.575 3°13.2 96.9 1 246 10.9
2012-03-26 08:55:22 51°22.567 3°13.179 90.8 0.9 245 11.1
2012-03-26 08:56:23 51°22.561 3°13.16 87 0.7 245 11.1
2012-03-26 08:57:23 51°22.556 3°13.145 82.9 0.5 242 11
2012-03-26 08:58:23 51°22.553 3°13.134 78.6 0.4 249 11
2012-03-26 08:59:23 51°22.552 3°13.126 75.2 0.3 271 11.2
2012-03-26 09:00:23 51°22.556 3°13.141 74.5 1.3 73 11
2012-03-26 09:01:22 51°22.562 3°13.167 73.2 0.7 60 11
2012-03-26 09:02:23 51°22.566 3°13.171 69.3 0.3 311 11
2012-03-26 09:03:22 51°22.566 3°13.162 68.4 0.5 269 11
2012-03-26 09:04:22 51°22.565 3°13.145 69 0.8 262 11.2
2012-03-26 09:05:22 51°22.562 3°13.123 71.1 0.9 261 11.1
2012-03-26 09:06:23 51°22.558 3°13.098 73.7 1 248 11.2
2012-03-26 09:07:22 51°22.552 3°13.072 74.1 1.1 249 11.4
2012-03-26 09:08:23 51°22.546 3°13.043 74.9 1.1 249 11.4
2012-03-26 09:09:23 51°22.54 3°13.013 76.9 1.2 249 11.5
2012-03-26 09:10:23 51°22.533 3°12.981 79.1 1.3 254 11.6
2012-03-26 09:11:22 51°22.526 3°12.95 81.8 1.3 249 11.7
2012-03-26 09:12:23 51°22.518 3°12.926 85 0.3 204 11.8
2012-03-26 09:13:23 51°22.534 3°12.969 55.2 3.3 44 11.7
2012-03-26 09:14:23 51°22.595 3°13.023 38.2 4.3 25 11.4
2012-03-26 09:15:23 51°22.655 3°13.065 37.1 3.7 24 11.4
2012-03-26 09:16:22 51°22.707 3°13.109 44 3.4 31 11.1
2012-03-26 09:17:23 51°22.747 3°13.161 55.2 3 43 10.9
2012-03-26 09:18:23 51°22.784 3°13.214 50.2 3 37 10.6
2012-03-26 09:19:23 51°22.825 3°13.255 41.4 2.9 26 10.6
2012-03-26 09:20:23 51°22.871 3°13.282 31.7 3 15 10.3
2012-03-26 09:21:22 51°22.922 3°13.294 21.9 3.2 3 10.3
2012-03-26 09:22:22 51°22.974 3°13.306 34.1 2.9 19 10.1
2012-03-26 09:23:23 51°23.011 3°13.349 53.8 2.7 46 10
2012-03-26 09:24:22 51°23.044 3°13.398 49.4 2.8 41 9.9
2012-03-26 09:25:22 51°23.079 3°13.446 47.6 2.8 38 9.8
2012-03-26 09:26:23 51°23.12 3°13.49 42.4 3 34 9.7
2012-03-26 09:27:22 51°23.162 3°13.539 47.4 3.2 39 9.5
2012-03-26 09:28:22 51°23.207 3°13.585 38.6 3.3 25 9.4
2012-03-26 09:29:22 51°23.257 3°13.619 32.9 3.3 19 9.3
2012-03-26 09:30:22 51°23.301 3°13.663 52.8 3.1 48 9.3
2012-03-26 09:31:22 51°23.328 3°13.731 62.9 3.1 61 9.3
2012-03-26 09:32:22 51°23.351 3°13.805 66.1 3 66 9.3
2012-03-26 09:33:23 51°23.369 3°13.881 70.9 3 74 9.2
2012-03-26 09:34:23 51°23.378 3°13.958 80.1 2.9 90 9.2
2012-03-26 09:35:23 51°23.363 3°14.027 106.5 2.4 128 9
2012-03-26 09:36:22 51°23.336 3°14.056 125.5 1.9 161 9
2012-03-26 09:37:23 51°23.308 3°14.062 134.8 1.6 180 8.9
2012-03-26 09:38:22 51°23.286 3°14.085 93.3 2 96 8.9
2012-03-26 09:39:23 51°23.319 3°14.116 15.3 3.6 350 8.9
2012-03-26 09:40:22 51°23.439 3°14.033 344.9 11.1 336 9.2
2012-03-26 09:41:22 51°23.623 3°13.902 345.3 12.4 338 10.4
2012-03-26 09:42:23 51°23.817 3°13.778 347.6 12.4 340 10.7
2012-03-26 09:43:23 51°24.013 3°13.685 350.7 12.3 342 10.8
2012-03-26 09:44:23 51°24.203 3°13.549 340.5 12.8 330 13.4
2012-03-26 09:45:23 51°24.381 3°13.353 334.3 13.2 321 18.2
2012-03-26 09:46:23 51°24.519 3°13.076 310.5 13.6 302 18
2012-03-26 09:47:22 51°24.609 3°12.753 288.8 13.5 283 15
2012-03-26 09:48:23 51°24.636 3°12.385 276.9 13.8 273 14
2012-03-26 09:49:22 51°24.648 3°12.023 277.4 13.9 273 13.1
2012-03-26 09:50:23 51°24.658 3°11.649 276 13.8 271 12.4
2012-03-26 09:51:23 51°24.658 3°11.289 273.7 13.5 269 11.8
2012-03-26 09:52:23 51°24.648 3°10.929 272 13.6 266 11.4
2012-03-26 09:53:23 51°24.632 3°10.571 272.5 13.5 267 10.6
2012-03-26 09:54:22 51°24.609 3°10.22 268.3 13.5 264 10
2012-03-26 09:55:23 51°24.632 3°9.867 290 13 283 9.3
2012-03-26 09:56:22 51°24.685 3°9.539 290.5 12.8 284 8.8
2012-03-26 09:57:23 51°24.728 3°9.201 287 12.6 281 8.3
2012-03-26 09:58:23 51°24.764 3°8.871 287.1 12.5 282 8.3
2012-03-26 09:59:23 51°24.817 3°8.548 290.5 12.6 284 8.1
2012-03-26 10:00:23 51°24.863 3°8.222 288.4 12.6 281 8.3
2012-03-26 10:01:22 51°24.897 3°7.895 286.4 12.7 281 8.5
2012-03-26 10:02:23 51°24.987 3°7.6 316.2 11.9 310 8.2
2012-03-26 10:03:22 51°25.141 3°7.435 346.7 11.1 344 8.2
2012-03-26 10:04:23 51°25.327 3°7.416 10.6 11 7 8.5
2012-03-26 10:05:22 51°25.5 3°7.496 28.2 11 26 8.7
2012-03-26 10:06:23 51°25.664 3°7.635 30 10.9 26 8.6
2012-03-26 10:07:22 51°25.824 3°7.764 30 10.9 27 8.8
2012-03-26 10:08:23 51°25.991 3°7.883 24 10.9 20 8.4
2012-03-26 10:09:23 51°26.161 3°7.982 23.3 10.9 18 8.5
2012-03-26 10:10:23 51°26.29 3°8.113 47.8 6.8 50 8.8
2012-03-26 10:11:23 51°26.355 3°8.222 37.1 5.7 38 9.3
2012-03-26 10:12:22 51°26.432 3°8.304 33.4 4.5 33 9.4
2012-03-26 10:13:23 51°26.467 3°8.36 55.2 1.8 79 9.5
2012-03-26 10:14:22 51°26.448 3°8.372 101.7 1.5 180 9.4
2012-03-26 10:15:22 51°26.42 3°8.368 123.8 1.8 190 9.7
2012-03-26 10:16:22 51°26.391 3°8.356 140.4 1.8 199 9.5
2012-03-26 10:17:23 51°26.357 3°8.354 126 2.4 161 9.6
2012-03-26 10:18:23 51°26.346 3°8.41 49 2.8 48 9.6
2012-03-26 10:19:22 51°26.415 3°8.403 0.8 5.6 352 9.6
2012-03-26 10:20:22 51°26.48 3°8.397 21.6 2.3 21 9.4
2012-03-26 10:21:23 51°26.494 3°8.418 46 0.6 106 9.5
2012-03-26 10:22:23 51°26.484 3°8.433 62.6 0.9 145 9.5
2012-03-26 10:23:22 51°26.469 3°8.444 63.6 1 165 9.5
2012-03-26 10:24:22 51°26.452 3°8.449 63.4 1.1 179 9.6
2012-03-26 10:25:22 51°26.433 3°8.451 63.6 1.2 183 9.6
2012-03-26 10:26:23 51°26.412 3°8.45 60.6 1.2 181 9.7
2012-03-26 10:27:22 51°26.392 3°8.447 55.5 1.1 187 9.8
2012-03-26 10:28:22 51°26.373 3°8.445 50.9 1.1 185 9.7
2012-03-26 10:29:23 51°26.355 3°8.442 46.7 1.1 184 9.7
2012-03-26 10:30:23 51°26.338 3°8.438 42.4 1.1 190 9.7
2012-03-26 10:31:23 51°26.32 3°8.432 37.1 1.1 187 9.6
2012-03-26 10:32:22 51°26.304 3°8.426 31.8 1 194 9.6
2012-03-26 10:33:23 51°26.289 3°8.418 26.2 1 200 9.6
2012-03-26 10:34:23 51°26.274 3°8.408 18.2 1 204 9.5
2012-03-26 10:35:23 51°26.26 3°8.396 8.8 1 211 9.3
2012-03-26 10:36:22 51°26.246 3°8.379 358.5 1.1 216 9.3
2012-03-26 10:37:23 51°26.233 3°8.358 347.7 1.2 226 9.3
2012-03-26 10:38:23 51°26.22 3°8.334 338.3 1.3 235 9.5
2012-03-26 10:39:22 51°26.207 3°8.307 331.4 1.4 234 9.3
2012-03-26 10:40:23 51°26.202 3°8.268 330.1 1.9 285 9.2
2012-03-26 10:41:22 51°26.226 3°8.223 349 2.4 325 9.1
2012-03-26 10:42:23 51°26.266 3°8.208 11.7 2.5 5 9.3
2012-03-26 10:43:23 51°26.31 3°8.239 32.7 3.3 35 9.5
2012-03-26 10:44:23 51°26.35 3°8.308 46.5 3.8 56 9.7
2012-03-26 10:45:22 51°26.381 3°8.394 48.9 3.6 57 9.7
2012-03-26 10:46:22 51°26.414 3°8.465 42.3 2.9 53 9.6
2012-03-26 10:47:23 51°26.442 3°8.524 43.2 2.6 54 9.7
2012-03-26 10:48:22 51°26.464 3°8.578 45.6 2.4 57 9.5
2012-03-26 10:49:23 51°26.484 3°8.637 48 2.5 63 9.8
2012-03-26 10:50:22 51°26.503 3°8.693 46 2.4 61 9.5
2012-03-26 10:51:22 51°26.524 3°8.748 43.8 2.4 56 9.8
2012-03-26 10:52:22 51°26.547 3°8.801 41.9 2.4 52 9.6
2012-03-26 10:53:22 51°26.572 3°8.853 41.2 2.4 54 9.8
2012-03-26 10:54:22 51°26.597 3°8.908 43.3 2.7 56 9.7
2012-03-26 10:55:23 51°26.623 3°8.976 46.6 3 60 9.7
2012-03-26 10:56:22 51°26.648 3°9.047 47.6 3.1 60 10
2012-03-26 10:57:23 51°26.676 3°9.12 46.2 3.2 57 10.2
2012-03-26 10:58:23 51°26.701 3°9.197 59.6 3.4 77 10.3
2012-03-26 10:59:22 51°26.7 3°9.291 78.8 3.8 99 10.3
2012-03-26 11:00:22 51°26.668 3°9.389 111.1 4.5 132 10.1
2012-03-26 11:01:22 51°26.604 3°9.465 144.2 5.1 159 10.3
2012-03-26 11:02:22 51°26.527 3°9.477 179.3 4.1 184 10.1
2012-03-26 11:03:23 51°26.465 3°9.462 192.1 3.4 192 9.9
2012-03-26 11:04:22 51°26.411 3°9.439 201.4 4.3 201 9.6
2012-03-26 11:05:22 51°26.347 3°9.334 257.4 6.2 250 9.5
2012-03-26 11:06:23 51°26.378 3°9.191 330.2 6.3 324 9.5
2012-03-26 11:07:23 51°26.501 3°9.176 9.1 9.1 4 9.6
2012-03-26 11:08:22 51°26.664 3°9.234 20.5 10.7 18 10.2
2012-03-26 11:09:22 51°26.837 3°9.313 17.5 10.8 15 10.2
2012-03-26 11:10:22 51°27.011 3°9.379 15.4 10.8 12 10.2
2012-03-26 11:11:22 51°27.189 3°9.417 9.1 10.8 3 10.5
2012-03-26 11:12:23 51°27.371 3°9.434 8.4 10.7 5 11
2012-03-26 11:13:22 51°27.543 3°9.486 17.8 10.7 17 11.6
2012-03-26 11:14:23 51°27.721 3°9.536 9.3 10.8 4 12
2012-03-26 11:15:22 51°27.897 3°9.565 13.6 10.8 12 12.4
2012-03-26 11:16:22 51°28.071 3°9.637 17.5 10.7 14 12.8
2012-03-26 11:17:22 51°28.248 3°9.669 6.2 10.8 -999 13.1
2012-03-26 11:18:22 51°28.428 3°9.68 10.2 10.8 8 13.6
2012-03-26 11:19:22 51°28.601 3°9.753 19.4 10.7 16 13.9
2012-03-26 11:20:22 51°28.757 3°9.79 9.9 8.1 5 14.5
2012-03-26 11:21:22 51°28.854 3°9.815 18.5 4 15 14.7
2012-03-26 11:22:22 51°28.89 3°9.848 42.7 1.7 59 14.8
2012-03-26 11:23:22 51°28.899 3°9.878 31 1.1 35 14.9
2012-03-26 11:24:22 51°28.914 3°9.882 15.9 0.4 251 14.8
2012-03-26 11:25:23 51°28.9 3°9.864 354.4 1.4 222 14.8
2012-03-26 11:26:22 51°28.884 3°9.843 345.7 0.6 213 14.9
2012-03-26 11:27:22 51°28.883 3°9.841 22.1 0.2 28 14.9
2012-03-26 11:28:22 51°28.883 3°9.842 22.7 0.1 234 14.8
2012-03-26 11:29:23 51°28.883 3°9.841 20.4 0.1 4 14.8
2012-03-26 11:30:22 51°28.884 3°9.84 18.2 0.1 225 15
2012-03-26 11:31:22 51°28.885 3°9.838 19.6 0.1 54 14.9
2012-03-26 11:32:23 51°28.885 3°9.838 20.6 -999 228 14.8
2012-03-26 11:33:22 51°28.884 3°9.839 21.1 0.1 73 14.9
2012-03-26 11:34:23 51°28.884 3°9.839 20 -999 331 14.9
2012-03-26 11:35:22 51°28.884 3°9.839 18.7 0.1 356 14.9
2012-03-26 11:36:22 51°28.885 3°9.838 19 0.1 303 14.9
2012-03-26 11:37:22 51°28.885 3°9.837 20.6 -999 60 15
2012-03-26 11:38:22 51°28.884 3°9.838 22.6 0.1 138 15.1
2012-03-26 11:39:23 51°28.884 3°9.839 22.9 0.1 167 14.8
2012-03-26 11:40:22 51°28.884 3°9.839 20.4 0.1 269 14.9
2012-03-26 11:41:23 51°28.884 3°9.837 18.4 0.1 333 14.8
2012-03-26 11:42:22 51°28.885 3°9.837 20.1 -999 132 14.9
2012-03-26 11:43:22 51°28.885 3°9.838 20.7 0.1 64 15.1
2012-03-26 11:44:22 51°28.884 3°9.839 20.4 -999 142 14.9
2012-03-26 11:45:22 51°28.884 3°9.839 19.9 -999 127 15
2012-03-26 11:46:23 51°28.884 3°9.839 19.1 -999 214 15
2012-03-26 11:47:22 51°28.884 3°9.839 19.1 -999 223 15
2012-03-26 11:48:23 51°28.884 3°9.839 19.2 -999 214 15
2012-03-26 11:49:23 51°28.884 3°9.839 19.6 0.1 165 14.9
2012-03-26 11:50:23 51°28.884 3°9.839 19.7 0.1 131 15.1
2012-03-26 11:51:22 51°28.884 3°9.839 20.8 -999 128 15
2012-03-26 11:52:22 51°28.884 3°9.84 19.7 0.1 71 15.1
2012-03-26 11:53:22 51°28.884 3°9.841 18.1 0.1 297 15
2012-03-26 11:54:22 51°28.884 3°9.84 17 0.1 359 15.1
2012-03-26 11:55:22 51°28.889 3°9.844 22.7 0.6 35 15.2
2012-03-26 11:56:23 51°28.898 3°9.855 26.1 0.6 38 15.1
2012-03-26 11:57:23 51°28.905 3°9.866 26.3 0.4 43 15.2
2012-03-26 11:58:23 51°28.906 3°9.869 21.7 0.7 19 15.1
2012-03-26 11:59:22 51°28.972 3°9.933 35.4 7.8 37 15
2012-03-26 12:00:22 51°29.072 3°10.118 52.2 9.8 53 15.1
2012-03-26 12:01:23 51°29.206 3°10.255 21.7 9.6 19 15.2
2012-03-26 12:02:22 51°29.359 3°10.328 19.7 9.8 17 15.6
2012-03-26 12:03:23 51°29.519 3°10.407 19.7 9.8 17 15.9
2012-03-26 12:04:23 51°29.677 3°10.48 17.4 9.9 14 16.1
2012-03-26 12:05:23 51°29.796 3°10.506 4.2 4.3 2 16.6
2012-03-26 12:06:22 51°29.833 3°10.538 39.4 2 53 16.6
2012-03-26 12:07:22 51°29.85 3°10.575 26.4 1.3 31 16.6
2012-03-26 12:08:22 51°29.871 3°10.571 354.6 1.6 333 16.7
2012-03-26 12:09:22 51°29.894 3°10.57 21 1.1 20 16.8
2012-03-26 12:10:22 51°29.896 3°10.574 30.7 0.6 184 16.7
2012-03-26 12:11:23 51°29.882 3°10.574 45 1 182 16.8
2012-03-26 12:12:23 51°29.874 3°10.571 26.4 -999 217 16.8
2012-03-26 12:13:22 51°29.875 3°10.569 12.2 0.1 291 16.9
2012-03-26 12:14:23 51°29.876 3°10.565 11.7 0.1 317 16.9
2012-03-26 12:15:22 51°29.876 3°10.565 19.7 0.1 135 16.9
2012-03-26 12:16:22 51°29.875 3°10.568 24.4 0.2 129 16.7
2012-03-26 12:17:22 51°29.874 3°10.573 24 0.1 72 16.9
2012-03-26 12:18:22 51°29.874 3°10.575 17.6 0.1 191 16.9
2012-03-26 12:19:22 51°29.874 3°10.571 11.4 0.2 287 16.9
2012-03-26 12:20:22 51°29.875 3°10.567 11.7 0.2 291 16.9
2012-03-26 12:21:23 51°29.875 3°10.566 17.5 0.1 139 16.9
2012-03-26 12:22:23 51°29.875 3°10.568 22.9 0.2 88 17
2012-03-26 12:23:22 51°29.874 3°10.572 23.3 0.1 89 16.9
2012-03-26 12:24:22 51°29.874 3°10.575 18.3 0.1 181 16.9
2012-03-26 12:25:22 51°29.874 3°10.573 12.1 0.1 238 16.9
2012-03-26 12:26:22 51°29.875 3°10.569 10.5 0.2 306 16.9
2012-03-26 12:27:22 51°29.875 3°10.568 15.8 -999 20 16.9
2012-03-26 12:28:22 51°29.874 3°10.57 19 0.1 137 16.9
2012-03-26 12:29:22 51°29.878 3°10.573 15.6 0.5 19 17
2012-03-26 12:30:23 51°29.887 3°10.577 16.8 0.6 25 17
2012-03-26 12:31:23 51°29.89 3°10.583 20.7 0.2 105 17.1
2012-03-26 12:32:23 51°29.886 3°10.587 22.8 0.4 153 17
2012-03-26 12:33:23 51°29.894 3°10.582 346.5 1.5 321 17.1
2012-03-26 12:34:23 51°29.898 3°10.497 271 5 252 17.2
2012-03-26 12:35:23 51°29.833 3°10.278 252.7 11.5 247 17.4
2012-03-26 12:36:23 51°29.768 3°9.96 259.7 12.9 254 17.4
2012-03-26 12:37:23 51°29.673 3°9.645 246.9 13.2 241 17.4
2012-03-26 12:38:23 51°29.562 3°9.34 244 13.2 238 17.1
2012-03-26 12:39:23 51°29.457 3°9.03 245.4 13.2 240 17.1
2012-03-26 12:40:23 51°29.345 3°8.728 247.8 13.1 243 16.7
2012-03-26 12:41:23 51°29.252 3°8.413 247.1 13.1 242 17
2012-03-26 12:42:23 51°29.139 3°8.112 244.1 13.1 241 17
2012-03-26 12:43:23 51°29.049 3°7.794 251.5 13.1 246 17.4
2012-03-26 12:44:23 51°28.95 3°7.484 245.3 13.1 241 17.5
2012-03-26 12:45:23 51°28.858 3°7.169 250.1 13.1 246 17.1
2012-03-26 12:46:23 51°28.776 3°6.849 252.8 13 248 17.1
2012-03-26 12:47:23 51°28.685 3°6.534 247.6 13.1 243 17.6
2012-03-26 12:48:23 51°28.601 3°6.216 253.9 12.9 249 17.6
2012-03-26 12:49:23 51°28.556 3°5.884 267.3 12.7 263 16.9
2012-03-26 12:50:23 51°28.521 3°5.551 264.7 12.7 259 17.6
2012-03-26 12:51:23 51°28.479 3°5.218 263.4 12.8 258 18
2012-03-26 12:52:23 51°28.418 3°4.892 256.6 12.9 251 19.4
2012-03-26 12:53:23 51°28.353 3°4.566 257.2 13 251 20.4
2012-03-26 12:54:23 51°28.296 3°4.238 262.7 12.7 258 21.1
2012-03-26 12:55:23 51°28.268 3°3.924 271.1 10.7 266 21.8
2012-03-26 12:56:23 51°28.262 3°3.693 278.4 7.1 271 22.8
2012-03-26 12:57:23 51°28.271 3°3.525 283.2 5.6 273 23.4
2012-03-26 12:58:23 51°28.244 3°3.418 228.8 4.2 215 23.6
2012-03-26 12:59:23 51°28.197 3°3.393 187.7 1.7 180 23.3
2012-03-26 13:00:23 51°28.189 3°3.39 166.3 0.3 221 23.3
2012-03-26 13:01:26 51°28.184 3°3.385 169.5 0.4 202 23.2
2012-03-26 13:02:24 51°28.176 3°3.382 174.4 0.5 189 23.3
2012-03-26 13:03:23 51°28.167 3°3.381 179.1 0.7 179 23.3
2012-03-26 13:04:23 51°28.155 3°3.381 180.8 0.8 177 23.4
2012-03-26 13:05:23 51°28.142 3°3.383 179.7 0.8 170 23.2
2012-03-26 13:06:23 51°28.128 3°3.387 172.2 0.9 169 23.1
2012-03-26 13:07:23 51°28.114 3°3.392 161.7 0.9 163 23
2012-03-26 13:08:23 51°28.1 3°3.398 151.2 0.9 164 22.8
2012-03-26 13:09:23 51°28.086 3°3.405 141.5 0.9 159 22.6
2012-03-26 13:10:23 51°28.072 3°3.413 133.6 0.9 159 22.5
2012-03-26 13:11:24 51°28.058 3°3.42 126.5 1 164 22.5
2012-03-26 13:12:23 51°28.045 3°3.428 121.5 0.8 158 22.4
2012-03-26 13:13:23 51°28.032 3°3.435 120.6 0.8 159 22.2
2012-03-26 13:14:23 51°28.019 3°3.441 122.8 0.8 163 22.2
2012-03-26 13:15:23 51°28.007 3°3.447 127.2 0.8 159 22.2
2012-03-26 13:16:23 51°27.995 3°3.454 131.9 0.8 160 22
2012-03-26 13:17:23 51°27.985 3°3.461 136.9 0.7 150 21.8
2012-03-26 13:18:23 51°27.974 3°3.468 141.6 0.8 158 21.8
2012-03-26 13:19:23 51°27.964 3°3.476 144.8 0.6 146 21.7
2012-03-26 13:20:23 51°27.954 3°3.485 147.3 0.6 144 21.7
2012-03-26 13:21:23 51°27.943 3°3.495 149.1 1 150 21.7
2012-03-26 13:22:23 51°27.903 3°3.508 198.3 3.8 193 21.2
2012-03-26 13:23:23 51°27.881 3°3.427 289.9 3.4 293 21
2012-03-26 13:24:23 51°27.93 3°3.37 331.1 3.5 336 21.8
2012-03-26 13:25:23 51°27.978 3°3.352 344.1 2.6 355 22.3
2012-03-26 13:26:23 51°28.032 3°3.355 357.8 3.9 8 22.8
2012-03-26 13:27:23 51°28.099 3°3.39 16.9 4.3 28 23.3
2012-03-26 13:28:23 51°28.155 3°3.459 34.1 4.2 46 23.7
2012-03-26 13:29:23 51°28.193 3°3.545 50.7 3.8 63 23.8
2012-03-26 13:30:23 51°28.214 3°3.634 64.7 3.5 77 23.5
2012-03-26 13:31:23 51°28.222 3°3.723 77.4 3.3 87 23.1
2012-03-26 13:32:23 51°28.222 3°3.812 81.7 3.3 91 22.9
2012-03-26 13:33:23 51°28.223 3°3.899 80.9 3.3 91 22.6
2012-03-26 13:34:23 51°28.223 3°3.984 81 3.2 91 22.3
2012-03-26 13:35:23 51°28.223 3°4.07 81.7 3.2 90 22.2
2012-03-26 13:36:23 51°28.222 3°4.156 82.2 3.2 93 21.9
2012-03-26 13:37:23 51°28.22 3°4.241 92.3 3.3 100 21.7
2012-03-26 13:38:23 51°28.203 3°4.32 125.2 3.2 117 21.5
2012-03-26 13:39:23 51°28.171 3°4.39 142.7 3.3 132 20.8
2012-03-26 13:40:23 51°28.13 3°4.454 152.1 3.6 139 20.3
2012-03-26 13:41:23 51°28.08 3°4.51 167.9 3.7 153 19.6
2012-03-26 13:42:23 51°28.024 3°4.528 199.6 3.4 180 19
2012-03-26 13:43:23 51°27.977 3°4.519 218.6 2.2 190 18.7
2012-03-26 13:44:23 51°27.949 3°4.51 231.3 1.6 188 18.8
2012-03-26 13:45:23 51°27.93 3°4.506 239 1.1 183 18.6
2012-03-26 13:46:23 51°27.917 3°4.506 246.1 0.7 186 18.6
2012-03-26 13:47:23 51°27.873 3°4.44 227.8 7.7 219 18.4
2012-03-26 13:48:23 51°27.726 3°4.292 214.2 11.7 209 18
2012-03-26 13:49:23 51°27.554 3°4.139 213.7 12.1 209 17.4
2012-03-26 13:50:23 51°27.382 3°3.986 215 11.8 208 16.8
2012-03-26 13:51:23 51°27.203 3°3.852 207 11.9 200 16.3
2012-03-26 13:52:23 51°27.027 3°3.716 215.7 11.6 211 15.2
2012-03-26 13:53:23 51°26.861 3°3.555 214.7 11.7 209 15.3
2012-03-26 13:54:23 51°26.685 3°3.425 208.8 11.5 202 14.5
2012-03-26 13:55:23 51°26.517 3°3.281 217.6 11.4 212 14.1
2012-03-26 13:56:23 51°26.349 3°3.137 210 11.5 204 13.8
2012-03-26 13:57:23 51°26.182 3°2.992 217 11.4 212 13.4
2012-03-26 13:58:23 51°26.016 3°2.844 212.4 11.5 207 13.8
2012-03-26 13:59:23 51°25.842 3°2.716 209.8 11.5 203 13.6
2012-03-26 14:00:24 51°25.672 3°2.57 216.9 11.4 212 14
2012-03-26 14:01:23 51°25.506 3°2.431 211 11.6 204 15
2012-03-26 14:02:23 51°25.328 3°2.313 209 11.6 204 16
2012-03-26 14:03:23 51°25.161 3°2.164 217.3 11.4 212 16.9
2012-03-26 14:04:23 51°24.995 3°2.014 215.8 11.5 208 18.1
2012-03-26 14:05:23 51°24.824 3°1.875 211.8 11.5 204 20.2
2012-03-26 14:06:23 51°24.651 3°1.748 213.5 11.6 208 22
2012-03-26 14:07:23 51°24.487 3°1.592 217.4 11.5 212 20
2012-03-26 14:08:23 51°24.318 3°1.448 211.7 11.6 205 21
2012-03-26 14:09:23 51°24.144 3°1.312 214.9 11.5 211 21.7
2012-03-26 14:10:23 51°23.977 3°1.161 215.3 11.5 209 21.5
2012-03-26 14:11:23 51°23.805 3°1.023 210.6 11.6 202 20.9
2012-03-26 14:12:23 51°23.629 3°0.901 213.5 11.3 208 20
2012-03-26 14:13:23 51°23.467 3°0.747 217.7 11.3 210 19.9
2012-03-26 14:14:23 51°23.299 3°0.617 211.3 11.3 206 18.9
2012-03-26 14:15:23 51°23.14 3°0.471 217.8 10.9 211 18.6
2012-03-26 14:16:24 51°22.974 3°0.338 212.7 11 203 17.4
2012-03-26 14:17:23 51°22.806 3°0.227 209.5 11.2 203 16.8
2012-03-26 14:18:23 51°22.645 3°0.086 218.1 11 212 16.1
2012-03-26 14:19:23 51°22.49 2°59.932 217.7 10.9 211 15.8
2012-03-26 14:20:23 51°22.33 2°59.791 212.7 11.1 206 15.5
2012-03-26 14:21:23 51°22.164 2°59.668 214.2 11 208 15.2
2012-03-26 14:22:23 51°21.998 2°59.544 210.2 11 203 14.9
2012-03-26 14:23:23 51°21.847 2°59.384 226.8 10.9 225 14.9
2012-03-26 14:24:23 51°21.718 2°59.177 228.1 11 224 15
2012-03-26 14:25:23 51°21.585 2°58.977 225.9 11 224 15
2012-03-26 14:26:23 51°21.44 2°58.802 219.9 10.8 217 15
2012-03-26 14:27:23 51°21.295 2°58.628 220 10.9 218 15
2012-03-26 14:28:23 51°21.162 2°58.433 227.2 10.8 226 15.1
2012-03-26 14:29:23 51°21.029 2°58.24 225.5 10.8 222 15.2
2012-03-26 14:30:23 51°20.886 2°58.065 218 10.8 214 15.3
2012-03-26 14:31:23 51°20.747 2°57.883 226.4 10.8 224 15
2012-03-26 14:32:23 51°20.61 2°57.695 220.3 11 217 15
2012-03-26 14:33:23 51°20.472 2°57.507 226.9 10.9 224 15.1
2012-03-26 14:34:23 51°20.336 2°57.32 219 10.8 218 15.1
2012-03-26 14:35:23 51°20.202 2°57.131 225.1 10.8 222 14.9
2012-03-26 14:36:23 51°20.061 2°56.951 218.8 10.9 218 14.9
2012-03-26 14:37:23 51°19.932 2°56.753 226.8 10.8 225 14.8
2012-03-26 14:38:23 51°19.795 2°56.568 219.5 10.8 215 14.7
2012-03-26 14:39:23 51°19.652 2°56.393 222.1 10.8 222 14.5
2012-03-26 14:40:23 51°19.524 2°56.19 228.1 10.8 224 14.4
2012-03-26 14:41:23 51°19.388 2°56.001 222.3 10.8 220 14.3
2012-03-26 14:42:23 51°19.253 2°55.808 226.5 10.9 227 14.2
2012-03-26 14:43:23 51°19.113 2°55.623 222.6 10.9 221 13.9
2012-03-26 14:44:23 51°18.987 2°55.412 230 10.9 231 14
2012-03-26 14:45:23 51°18.878 2°55.179 234.2 11 234 14
2012-03-26 14:46:23 51°18.765 2°54.95 228.5 11 225 13.9
2012-03-26 14:47:23 51°18.633 2°54.745 224.8 11 224 13.8
2012-03-26 14:48:23 51°18.511 2°54.53 232 11 233 13.6
2012-03-26 14:49:23 51°18.404 2°54.294 232.4 11 233 13.6
2012-03-26 14:50:23 51°18.29 2°54.066 227.7 10.9 228 13.4
2012-03-26 14:51:23 51°18.142 2°53.894 213.5 11 210 13.2
2012-03-26 14:52:23 51°17.987 2°53.736 218.4 11 219 13.1
2012-03-26 14:53:23 51°17.835 2°53.575 213.6 11 213 12.9
2012-03-26 14:54:23 51°17.687 2°53.401 218.9 11.1 218 12.8
2012-03-26 14:55:23 51°17.519 2°53.285 199.7 11 194 12.7
2012-03-26 14:56:23 51°17.335 2°53.228 194 11.2 185 12.5
2012-03-26 14:57:23 51°17.146 2°53.216 186.5 11.6 182 12
2012-03-26 14:58:23 51°16.956 2°53.202 185.1 11.5 179 11.3
2012-03-26 14:59:23 51°16.764 2°53.211 180.3 11.8 172 14.2
2012-03-26 15:00:23 51°16.569 2°53.264 177.8 11.9 172 14.9
2012-03-26 15:01:23 51°16.374 2°53.303 177.7 11.8 171 15.1
2012-03-26 15:02:23 51°16.183 2°53.367 170.6 11.9 165 14.9
2012-03-26 15:03:23 51°15.99 2°53.457 169.4 12.1 164 14.7
2012-03-26 15:04:23 51°15.798 2°53.549 164.9 12.1 157 15
2012-03-26 15:05:23 51°15.629 2°53.727 146 12.4 141 14.8
2012-03-26 15:06:23 51°15.468 2°53.932 144.3 12.5 142 14.5
2012-03-26 15:07:23 51°15.304 2°54.13 149.1 12.3 143 14.3
2012-03-26 15:08:23 51°15.143 2°54.331 145.2 12.4 143 14.3
2012-03-26 15:09:23 51°14.979 2°54.53 147 12.4 141 14.3
2012-03-26 15:10:23 51°14.818 2°54.735 148.4 12.2 146 14.5
2012-03-26 15:11:23 51°14.649 2°54.902 155.9 11.7 149 14.4
2012-03-26 15:12:23 51°14.478 2°55.046 158.1 11.3 154 13.5
2012-03-26 15:13:27 51°14.313 2°55.216 143.8 11.1 145 -999
2012-03-26 15:14:27 51°14.16 2°55.379 148.5 11 150 -999
2012-03-26 15:15:27 51°14.016 2°55.487 156.1 8.4 155 -999
2012-03-26 15:16:26 51°13.899 2°55.569 156.6 6.9 156 -999
2012-03-26 15:17:27 51°13.789 2°55.66 149.5 7.4 147 -999
2012-03-26 15:18:26 51°13.712 2°55.775 129.4 5.7 129 13.9
2012-03-26 15:19:26 51°13.664 2°55.881 122.7 4.3 121 12.7
2012-03-26 15:20:26 51°13.643 2°55.969 102.4 3.3 103 -999
2012-03-26 15:21:26 51°13.635 2°56.013 113.6 0.6 120 10.8
2012-03-26 15:22:26 51°13.635 2°56.018 110.4 0.1 175 -999
2012-03-26 15:23:26 51°13.636 2°56.018 119.5 0.1 298 10.7
2012-03-26 15:24:26 51°13.635 2°56.018 126.7 -999 236 -999
2012-03-26 15:25:26 51°13.635 2°56.018 125.7 0.1 117 -999
2012-03-26 15:26:26 51°13.636 2°56.017 125.6 0.1 271 -999
2012-03-26 15:27:26 51°13.636 2°56.018 125.7 -999 122 -999
2012-03-26 15:28:26 51°13.636 2°56.018 126.2 0.1 146 -999